createdAt,value
2023-05-01T00:00:30.194Z,-1.25
2023-05-01T00:05:04.770Z,-1.19
2023-05-01T00:09:22.366Z,-1.06
2023-05-01T00:13:40.164Z,-1.12
2023-05-01T00:17:58.011Z,-1.23
2023-05-01T00:22:16.552Z,-1.36
2023-05-01T00:26:34.088Z,-1.51
2023-05-01T00:30:52.554Z,-1.57
2023-05-01T00:35:10.081Z,-1.64
2023-05-01T00:39:28.020Z,-1.60
2023-05-01T00:43:45.743Z,-1.61
2023-05-01T00:48:03.768Z,-1.67
2023-05-01T00:52:21.411Z,-1.64
2023-05-01T00:56:39.182Z,-1.65
2023-05-01T01:00:57.482Z,-1.71
2023-05-01T01:05:15.318Z,-1.64
2023-05-01T01:10:14.641Z,-1.54
2023-05-01T01:14:45.943Z,-1.53
2023-05-01T01:19:26.115Z,-1.61
2023-05-01T01:24:24.678Z,-1.67
2023-05-01T01:29:37.055Z,-1.72
2023-05-01T01:34:02.165Z,-1.67
2023-05-01T01:38:31.638Z,-1.63
2023-05-01T01:42:55.614Z,-1.64
2023-05-01T01:47:15.579Z,-1.71
2023-05-01T01:51:34.613Z,-1.68
2023-05-01T01:55:54.929Z,-1.78
2023-05-01T02:00:14.494Z,-1.92
2023-05-01T02:04:33.251Z,-1.95
2023-05-01T02:08:52.188Z,-1.95
2023-05-01T02:13:12.574Z,-1.92
2023-05-01T02:17:30.966Z,-1.74
2023-05-01T02:21:50.639Z,-1.51
2023-05-01T02:26:13.850Z,-1.64
2023-05-01T02:30:32.790Z,-1.88
2023-05-01T02:34:50.455Z,-1.93
2023-05-01T02:39:08.995Z,-2.03
2023-05-01T02:43:28.990Z,-2.10
2023-05-01T02:47:51.913Z,-2.14
2023-05-01T02:52:10.372Z,-2.33
2023-05-01T02:56:31.484Z,-2.41
2023-05-01T03:00:50.223Z,-2.41
2023-05-01T03:05:09.013Z,-2.37
2023-05-01T03:09:26.925Z,-2.30
2023-05-01T03:13:44.677Z,-2.34
2023-05-01T03:18:02.939Z,-2.37
2023-05-01T03:22:21.490Z,-2.34
2023-05-01T03:26:39.320Z,-2.23
2023-05-01T03:30:56.971Z,-2.17
2023-05-01T03:35:14.978Z,-1.98
2023-05-01T03:39:32.564Z,-1.85
2023-05-01T03:43:51.165Z,-1.67
2023-05-01T03:48:08.775Z,-1.57
2023-05-01T03:52:27.009Z,-1.48
2023-05-01T03:56:44.501Z,-1.34
2023-05-01T04:01:03.291Z,-1.19
2023-05-01T04:05:21.737Z,-0.98
2023-05-01T04:09:39.493Z,-0.77
2023-05-01T04:13:57.027Z,-0.56
2023-05-01T04:18:14.907Z,-0.37
2023-05-01T04:22:33.525Z,-0.09
2023-05-01T04:26:51.102Z,0.46
2023-05-01T04:31:08.858Z,0.84
2023-05-01T04:35:27.203Z,1.28
2023-05-01T04:39:44.933Z,1.74
2023-05-01T04:44:02.739Z,2.19
2023-05-01T04:48:20.411Z,2.54
2023-05-01T04:52:38.303Z,2.85
2023-05-01T04:56:56.037Z,3.18
2023-05-01T05:01:13.816Z,3.61
2023-05-01T05:05:31.382Z,4.10
2023-05-01T05:09:49.391Z,4.63
2023-05-01T05:14:06.935Z,5.04
2023-05-01T05:18:24.653Z,5.46
2023-05-01T05:22:42.496Z,5.81
2023-05-01T05:27:01.642Z,6.19
2023-05-01T05:31:19.283Z,6.64
2023-05-01T05:35:37.262Z,7.02
2023-05-01T05:39:55.230Z,7.34
2023-05-01T05:44:13.007Z,7.72
2023-05-01T05:48:30.741Z,8.18
2023-05-01T05:52:48.421Z,8.40
2023-05-01T05:57:06.049Z,8.67
2023-05-01T06:01:23.890Z,8.95
2023-05-01T06:05:41.890Z,9.26
2023-05-01T06:10:04.571Z,9.50
2023-05-01T06:14:22.360Z,9.74
2023-05-01T06:18:39.993Z,9.89
2023-05-01T06:22:58.238Z,10.15
2023-05-01T06:27:16.040Z,10.40
2023-05-01T06:31:33.673Z,10.65
2023-05-01T06:35:51.931Z,10.80
2023-05-01T06:40:10.145Z,11.03
2023-05-01T06:44:27.809Z,11.26
2023-05-01T06:48:45.454Z,11.46
2023-05-01T06:53:03.463Z,11.67
2023-05-01T06:57:21.210Z,11.81
2023-05-01T07:01:39.018Z,11.84
2023-05-01T07:05:56.799Z,11.63
2023-05-01T07:10:14.779Z,11.81
2023-05-01T07:14:32.384Z,11.82
2023-05-01T07:18:50.256Z,11.84
2023-05-01T07:23:08.101Z,11.92
2023-05-01T07:27:26.175Z,11.91
2023-05-01T07:31:44.346Z,12.09
2023-05-01T07:36:02.253Z,12.40
2023-05-01T07:40:19.812Z,12.85
2023-05-01T07:44:37.657Z,12.81
2023-05-01T07:48:55.281Z,13.11
2023-05-01T07:53:12.970Z,13.09
2023-05-01T07:57:33.745Z,13.09
2023-05-01T08:01:51.653Z,13.19
2023-05-01T08:06:09.249Z,13.25
2023-05-01T08:10:28.816Z,13.09
2023-05-01T08:14:46.615Z,13.76
2023-05-01T08:19:04.536Z,13.28
2023-05-01T08:23:22.334Z,13.40
2023-05-01T08:27:40.586Z,13.85
2023-05-01T08:31:58.993Z,14.57
2023-05-01T08:36:17.805Z,15.07
2023-05-01T08:40:40.873Z,15.85
2023-05-01T08:45:01.494Z,15.90
2023-05-01T08:49:21.754Z,15.87
2023-05-01T08:53:41.667Z,16.31
2023-05-01T08:58:00.230Z,16.08
2023-05-01T09:02:18.863Z,16.38
2023-05-01T09:06:36.677Z,17.18
2023-05-01T09:10:56.984Z,17.36
2023-05-01T09:15:14.879Z,17.53
2023-05-01T09:19:32.925Z,18.32
2023-05-01T09:23:54.118Z,18.63
2023-05-01T09:28:12.068Z,19.08
2023-05-01T09:32:30.051Z,19.21
2023-05-01T09:36:48.523Z,19.27
2023-05-01T09:41:06.621Z,19.58
2023-05-01T09:45:27.034Z,19.48
2023-05-01T09:49:48.419Z,20.85
2023-05-01T09:54:19.669Z,20.85
2023-05-01T09:58:37.345Z,21.48
2023-05-01T10:02:55.281Z,21.02
2023-05-01T10:07:14.761Z,21.85
2023-05-01T10:12:00.404Z,21.79
2023-05-01T10:16:30.711Z,22.09
2023-05-01T10:20:48.607Z,22.28
2023-05-01T10:25:13.528Z,22.10
2023-05-01T10:29:32.482Z,22.86
2023-05-01T10:33:50.490Z,23.19
2023-05-01T10:38:19.598Z,23.48
2023-05-01T10:43:18.538Z,24.72
2023-05-01T10:47:41.768Z,25.12
2023-05-01T10:52:02.152Z,25.39
2023-05-01T10:56:25.629Z,25.51
2023-05-01T11:00:43.240Z,26.93
2023-05-01T11:05:01.713Z,24.89
2023-05-01T11:09:41.424Z,24.94
2023-05-01T11:14:04.977Z,26.47
2023-05-01T11:18:47.805Z,27.35
2023-05-01T11:23:05.480Z,26.64
2023-05-01T11:27:23.099Z,29.45
2023-05-01T11:31:40.464Z,29.54
2023-05-01T11:36:00.395Z,31.02
2023-05-01T11:40:30.820Z,30.25
2023-05-01T11:45:11.855Z,31.44
2023-05-01T11:49:29.899Z,31.86
2023-05-01T11:54:15.784Z,33.22
2023-05-01T11:58:34.643Z,34.22
2023-05-01T12:03:13.421Z,34.12
2023-05-01T12:07:32.770Z,35.72
2023-05-01T12:11:53.255Z,35.57
2023-05-01T12:16:11.768Z,35.59
2023-05-01T12:20:37.011Z,38.32
2023-05-01T12:24:54.965Z,36.51
2023-05-01T12:29:13.160Z,39.97
2023-05-01T12:33:30.852Z,39.44
2023-05-01T12:37:48.994Z,38.60
2023-05-01T12:42:14.416Z,38.00
2023-05-01T12:46:32.617Z,42.78
2023-05-01T12:50:55.031Z,39.09
2023-05-01T12:55:13.177Z,38.99
2023-05-01T12:59:31.600Z,41.99
2023-05-01T13:03:49.272Z,40.95
2023-05-01T13:08:07.352Z,42.64
2023-05-01T13:12:26.528Z,42.02
2023-05-01T13:16:47.453Z,42.57
2023-05-01T13:21:09.416Z,42.36
2023-05-01T13:25:27.687Z,40.60
2023-05-01T13:29:55.854Z,40.96
2023-05-01T13:34:19.013Z,41.13
2023-05-01T13:38:47.264Z,40.94
2023-05-01T13:43:05.230Z,41.17
2023-05-01T13:47:28.299Z,42.50
2023-05-01T13:51:46.951Z,39.42
2023-05-01T13:56:10.474Z,41.21
2023-05-01T14:00:28.297Z,42.18
2023-05-01T14:04:46.314Z,42.18
2023-05-01T14:09:06.049Z,42.80
2023-05-01T14:13:23.613Z,42.98
2023-05-01T14:17:41.585Z,43.18
2023-05-01T14:21:59.789Z,41.69
2023-05-01T14:26:19.784Z,41.78
2023-05-01T14:30:40.243Z,40.51
2023-05-01T14:34:59.881Z,38.77
2023-05-01T14:39:18.909Z,36.66
2023-05-01T14:43:37.269Z,40.04
2023-05-01T14:47:55.088Z,39.75
2023-05-01T14:52:14.272Z,40.40
2023-05-01T14:56:31.979Z,39.18
2023-05-01T15:00:49.646Z,39.30
2023-05-01T15:05:07.401Z,35.34
2023-05-01T15:09:24.760Z,34.01
2023-05-01T15:13:44.916Z,32.09
2023-05-01T15:18:03.783Z,35.26
2023-05-01T15:22:24.699Z,38.89
2023-05-01T15:26:42.803Z,37.94
2023-05-01T15:31:00.501Z,38.84
2023-05-01T15:35:18.168Z,39.11
2023-05-01T15:39:35.946Z,38.25
2023-05-01T15:43:53.676Z,37.84
2023-05-01T15:48:14.264Z,35.17
2023-05-01T15:52:31.976Z,34.75
2023-05-01T15:56:49.658Z,37.21
2023-05-01T16:01:09.085Z,34.66
2023-05-01T16:05:26.930Z,30.59
2023-05-01T16:09:44.574Z,29.58
2023-05-01T16:14:02.630Z,30.71
2023-05-01T16:18:23.333Z,30.38
2023-05-01T16:22:42.995Z,27.71
2023-05-01T16:27:00.597Z,26.97
2023-05-01T16:31:27.133Z,26.35
2023-05-01T16:35:48.625Z,25.51
2023-05-01T16:40:10.576Z,23.75
2023-05-01T16:44:28.340Z,21.44
2023-05-01T16:48:46.065Z,20.03
2023-05-01T16:53:03.604Z,18.35
2023-05-01T16:57:21.339Z,17.79
2023-05-01T17:01:38.446Z,17.69
2023-05-01T17:05:56.374Z,18.72
2023-05-01T17:10:13.907Z,18.36
2023-05-01T17:14:32.428Z,16.59
2023-05-01T17:18:49.976Z,15.83
2023-05-01T17:23:07.937Z,15.36
2023-05-01T17:27:25.364Z,14.90
2023-05-01T17:31:43.180Z,14.56
2023-05-01T17:36:00.871Z,14.18
2023-05-01T17:40:18.480Z,13.74
2023-05-01T17:44:36.295Z,13.23
2023-05-01T17:48:54.230Z,12.85
2023-05-01T17:53:12.207Z,12.33
2023-05-01T17:57:29.749Z,11.85
2023-05-01T18:01:48.656Z,11.70
2023-05-01T18:06:06.778Z,11.63
2023-05-01T18:10:30.252Z,11.38
2023-05-01T18:14:48.039Z,11.30
2023-05-01T18:19:05.597Z,11.23
2023-05-01T18:23:25.592Z,10.98
2023-05-01T18:27:44.853Z,10.73
2023-05-01T18:32:03.029Z,10.60
2023-05-01T18:36:20.899Z,10.68
2023-05-01T18:40:38.575Z,10.73
2023-05-01T18:44:57.100Z,10.74
2023-05-01T18:49:14.833Z,10.64
2023-05-01T18:53:32.399Z,10.47
2023-05-01T18:57:50.268Z,10.46
2023-05-01T19:02:08.107Z,10.48
2023-05-01T19:06:29.462Z,10.54
2023-05-01T19:10:47.172Z,10.51
2023-05-01T19:15:05.055Z,10.57
2023-05-01T19:19:23.182Z,10.64
2023-05-01T19:23:41.574Z,10.70
2023-05-01T19:28:02.273Z,10.85
2023-05-01T19:32:21.030Z,10.78
2023-05-01T19:36:38.872Z,10.81
2023-05-01T19:40:57.855Z,10.78
2023-05-01T19:45:17.713Z,10.84
2023-05-01T19:49:35.682Z,10.83
2023-05-01T19:53:53.513Z,10.85
2023-05-01T19:58:11.628Z,10.84
2023-05-01T20:02:29.911Z,10.83
2023-05-01T20:06:47.712Z,10.77
2023-05-01T20:11:05.620Z,10.60
2023-05-01T20:15:23.324Z,10.61
2023-05-01T20:19:44.294Z,10.51
2023-05-01T20:24:01.831Z,10.43
2023-05-01T20:28:20.963Z,10.41
2023-05-01T20:32:44.395Z,10.38
2023-05-01T20:37:02.723Z,10.34
2023-05-01T20:41:20.555Z,10.12
2023-05-01T20:45:38.332Z,10.02
2023-05-01T20:49:57.032Z,9.72
2023-05-01T20:54:14.994Z,9.54
2023-05-01T20:58:32.677Z,9.34
2023-05-01T21:02:52.274Z,9.22
2023-05-01T21:07:10.405Z,9.54
2023-05-01T21:11:28.105Z,9.65
2023-05-01T21:15:45.783Z,9.53
2023-05-01T21:20:10.945Z,9.40
2023-05-01T21:24:28.609Z,9.09
2023-05-01T21:28:46.572Z,8.85
2023-05-01T21:33:11.855Z,8.48
2023-05-01T21:37:30.216Z,8.25
2023-05-01T21:41:49.345Z,7.99
2023-05-01T21:46:15.512Z,7.88
2023-05-01T21:50:40.352Z,7.48
2023-05-01T21:54:58.184Z,7.16
2023-05-01T21:59:18.059Z,6.84
2023-05-01T22:03:41.926Z,6.61
2023-05-01T22:08:00.637Z,6.40
2023-05-01T22:12:18.657Z,6.26
2023-05-01T22:16:36.198Z,6.12
2023-05-01T22:20:54.121Z,5.99
2023-05-01T22:25:12.260Z,5.92
2023-05-01T22:29:29.783Z,5.82
2023-05-01T22:33:47.955Z,5.80
2023-05-01T22:38:05.742Z,5.77
2023-05-01T22:42:23.475Z,5.75
2023-05-01T22:46:44.970Z,5.73
2023-05-01T22:51:02.815Z,5.63
2023-05-01T22:55:20.669Z,5.56
2023-05-01T22:59:39.740Z,5.51
2023-05-01T23:03:58.078Z,5.54
2023-05-01T23:08:15.810Z,5.57
2023-05-01T23:12:34.452Z,5.56
2023-05-01T23:16:52.181Z,5.56
2023-05-01T23:21:19.773Z,5.59
2023-05-01T23:25:44.487Z,5.60
2023-05-01T23:30:04.425Z,5.75
2023-05-01T23:34:22.516Z,5.71
2023-05-01T23:38:40.804Z,5.77
2023-05-01T23:42:58.957Z,5.69
2023-05-01T23:47:17.145Z,5.59
2023-05-01T23:51:35.406Z,5.59
2023-05-01T23:55:53.181Z,5.59
